sensor_id;sensor_type;location;lat;lon;timestamp;pressure;altitude;pressure_sealevel;temperature;humidity
10881;BME280;5493;48.884;8.338;2023-09-19T00:01:42;99813.53;;;19.74;100.00
10881;BME280;5493;48.884;8.338;2023-09-19T00:04:11;99809.97;;;19.74;100.00
10881;BME280;5493;48.884;8.338;2023-09-19T00:06:38;99815.13;;;19.75;100.00
10881;BME280;5493;48.884;8.338;2023-09-19T00:09:04;99815.94;;;19.76;100.00
10881;BME280;5493;48.884;8.338;2023-09-19T00:11:35;99814.84;;;19.53;100.00
10881;BME280;5493;48.884;8.338;2023-09-19T00:14:02;99825.38;;;19.64;100.00
10881;BME280;5493;48.884;8.338;2023-09-19T00:16:30;99818.91;;;19.79;100.00
10881;BME280;5493;48.884;8.338;2023-09-19T00:18:58;99824.75;;;19.73;100.00
10881;BME280;5493;48.884;8.338;2023-09-19T00:21:26;99821.84;;;19.64;100.00
10881;BME280;5493;48.884;8.338;2023-09-19T00:23:53;99818.69;;;19.76;100.00
10881;BME280;5493;48.884;8.338;2023-09-19T00:26:20;99813.47;;;19.55;100.00
10881;BME280;5493;48.884;8.338;2023-09-19T00:28:47;99812.53;;;19.65;100.00
10881;BME280;5493;48.884;8.338;2023-09-19T00:31:13;99816.53;;;19.73;100.00
10881;BME280;5493;48.884;8.338;2023-09-19T00:33:40;99810.47;;;19.76;100.00
10881;BME280;5493;48.884;8.338;2023-09-19T00:36:08;99813.56;;;19.69;100.00
10881;BME280;5493;48.884;8.338;2023-09-19T00:38:35;99812.53;;;19.65;100.00
10881;BME280;5493;48.884;8.338;2023-09-19T00:41:02;99815.91;;;19.57;100.00
10881;BME280;5493;48.884;8.338;2023-09-19T00:43:29;99819.69;;;19.61;100.00
10881;BME280;5493;48.884;8.338;2023-09-19T00:45:59;99810.50;;;19.52;100.00
10881;BME280;5493;48.884;8.338;2023-09-19T00:48:29;99819.34;;;19.68;100.00
10881;BME280;5493;48.884;8.338;2023-09-19T00:50:57;99818.81;;;19.65;100.00
10881;BME280;5493;48.884;8.338;2023-09-19T00:53:25;99823.19;;;19.67;100.00
10881;BME280;5493;48.884;8.338;2023-09-19T00:55:53;99826.97;;;19.71;100.00
10881;BME280;5493;48.884;8.338;2023-09-19T00:58:21;99828.25;;;19.78;100.00
10881;BME280;5493;48.884;8.338;2023-09-19T01:00:48;99833.81;;;19.68;100.00
10881;BME280;5493;48.884;8.338;2023-09-19T01:03:15;99833.66;;;19.83;100.00
10881;BME280;5493;48.884;8.338;2023-09-19T01:05:43;99838.03;;;19.84;100.00
10881;BME280;5493;48.884;8.338;2023-09-19T01:08:10;99836.47;;;19.78;100.00
10881;BME280;5493;48.884;8.338;2023-09-19T01:10:50;99844.38;;;19.80;100.00
10881;BME280;5493;48.884;8.338;2023-09-19T01:13:24;99842.59;;;19.65;100.00
10881;BME280;5493;48.884;8.338;2023-09-19T01:16:03;99850.88;;;19.60;100.00
10881;BME280;5493;48.884;8.338;2023-09-19T01:18:43;99844.47;;;19.70;100.00
10881;BME280;5493;48.884;8.338;2023-09-19T01:21:15;99857.69;;;19.62;100.00
10881;BME280;5493;48.884;8.338;2023-09-19T01:24:10;99852.91;;;19.73;100.00
10881;BME280;5493;48.884;8.338;2023-09-19T01:26:56;99857.88;;;19.71;100.00
10881;BME280;5493;48.884;8.338;2023-09-19T01:29:38;99847.09;;;19.80;100.00
10881;BME280;5493;48.884;8.338;2023-09-19T01:32:08;99850.41;;;20.00;100.00
10881;BME280;5493;48.884;8.338;2023-09-19T01:34:53;99854.84;;;19.96;100.00
10881;BME280;5493;48.884;8.338;2023-09-19T01:37:22;99859.97;;;20.03;100.00
10881;BME280;5493;48.884;8.338;2023-09-19T01:39:54;99864.81;;;20.11;100.00
10881;BME280;5493;48.884;8.338;2023-09-19T01:42:30;99873.63;;;20.27;100.00
10881;BME280;5493;48.884;8.338;2023-09-19T01:45:03;99874.72;;;20.07;100.00
10881;BME280;5493;48.884;8.338;2023-09-19T01:47:40;99864.38;;;20.23;100.00
10881;BME280;5493;48.884;8.338;2023-09-19T01:50:15;99871.03;;;20.17;100.00
10881;BME280;5493;48.884;8.338;2023-09-19T01:52:47;99877.78;;;20.00;100.00
10881;BME280;5493;48.884;8.338;2023-09-19T01:55:16;99880.34;;;19.92;100.00
10881;BME280;5493;48.884;8.338;2023-09-19T01:57:48;99886.41;;;19.89;100.00
10881;BME280;5493;48.884;8.338;2023-09-19T02:00:18;99886.22;;;19.80;100.00
10881;BME280;5493;48.884;8.338;2023-09-19T02:02:49;99891.56;;;19.67;100.00
10881;BME280;5493;48.884;8.338;2023-09-19T02:05:22;99886.56;;;19.74;100.00
10881;BME280;5493;48.884;8.338;2023-09-19T02:07:49;99898.34;;;19.74;100.00
10881;BME280;5493;48.884;8.338;2023-09-19T02:10:16;99896.06;;;19.81;100.00
10881;BME280;5493;48.884;8.338;2023-09-19T02:12:43;99891.22;;;19.73;100.00
10881;BME280;5493;48.884;8.338;2023-09-19T02:15:10;99890.13;;;19.74;100.00
10881;BME280;5493;48.884;8.338;2023-09-19T02:17:36;99900.72;;;19.52;100.00
10881;BME280;5493;48.884;8.338;2023-09-19T02:20:05;99899.09;;;19.51;100.00
10881;BME280;5493;48.884;8.338;2023-09-19T02:22:36;99895.25;;;19.52;100.00
10881;BME280;5493;48.884;8.338;2023-09-19T02:25:04;99895.94;;;19.34;100.00
10881;BME280;5493;48.884;8.338;2023-09-19T02:27:32;99907.78;;;19.58;100.00
10881;BME280;5493;48.884;8.338;2023-09-19T02:29:59;99915.88;;;19.68;100.00
10881;BME280;5493;48.884;8.338;2023-09-19T02:32:27;99914.88;;;19.59;100.00
10881;BME280;5493;48.884;8.338;2023-09-19T02:34:55;99914.09;;;19.53;100.00
10881;BME280;5493;48.884;8.338;2023-09-19T02:37:24;99913.31;;;19.53;100.00
10881;BME280;5493;48.884;8.338;2023-09-19T02:39:51;99909.28;;;19.74;100.00
10881;BME280;5493;48.884;8.338;2023-09-19T02:42:17;99908.91;;;19.57;100.00
10881;BME280;5493;48.884;8.338;2023-09-19T02:44:44;99909.28;;;19.45;100.00
10881;BME280;5493;48.884;8.338;2023-09-19T02:47:12;99919.25;;;19.60;100.00
10881;BME280;5493;48.884;8.338;2023-09-19T02:49:40;99915.41;;;19.61;100.00
10881;BME280;5493;48.884;8.338;2023-09-19T02:52:07;99926.19;;;19.47;100.00
10881;BME280;5493;48.884;8.338;2023-09-19T02:54:35;99921.38;;;19.34;100.00
10881;BME280;5493;48.884;8.338;2023-09-19T02:57:02;99930.00;;;19.51;100.00
10881;BME280;5493;48.884;8.338;2023-09-19T02:59:31;99939.84;;;19.52;100.00
10881;BME280;5493;48.884;8.338;2023-09-19T03:01:58;99941.72;;;19.57;100.00
10881;BME280;5493;48.884;8.338;2023-09-19T03:04:25;99947.94;;;19.62;100.00
10881;BME280;5493;48.884;8.338;2023-09-19T03:06:52;99950.66;;;19.68;100.00
10881;BME280;5493;48.884;8.338;2023-09-19T03:09:23;99952.34;;;19.58;100.00
10881;BME280;5493;48.884;8.338;2023-09-19T03:11:51;99947.75;;;19.54;100.00
10881;BME280;5493;48.884;8.338;2023-09-19T03:14:19;99956.09;;;19.34;100.00
10881;BME280;5493;48.884;8.338;2023-09-19T03:16:46;99955.47;;;19.47;100.00
10881;BME280;5493;48.884;8.338;2023-09-19T03:19:12;99964.78;;;19.46;100.00
10881;BME280;5493;48.884;8.338;2023-09-19T03:21:40;99957.91;;;19.48;100.00
10881;BME280;5493;48.884;8.338;2023-09-19T03:24:07;99957.44;;;19.36;100.00
10881;BME280;5493;48.884;8.338;2023-09-19T03:26:33;99967.78;;;19.39;100.00
10881;BME280;5493;48.884;8.338;2023-09-19T03:29:03;99952.78;;;19.37;100.00
10881;BME280;5493;48.884;8.338;2023-09-19T03:31:31;99963.97;;;19.45;100.00
10881;BME280;5493;48.884;8.338;2023-09-19T03:33:58;99956.50;;;19.17;100.00
10881;BME280;5493;48.884;8.338;2023-09-19T03:36:24;99948.66;;;19.00;100.00
10881;BME280;5493;48.884;8.338;2023-09-19T03:38:53;99956.09;;;18.90;100.00
10881;BME280;5493;48.884;8.338;2023-09-19T03:41:19;99954.03;;;19.15;100.00
10881;BME280;5493;48.884;8.338;2023-09-19T03:43:46;99962.63;;;18.94;100.00
10881;BME280;5493;48.884;8.338;2023-09-19T03:46:14;99953.50;;;19.13;100.00
10881;BME280;5493;48.884;8.338;2023-09-19T03:48:40;99956.75;;;18.77;100.00
10881;BME280;5493;48.884;8.338;2023-09-19T03:51:07;99961.75;;;19.03;100.00
10881;BME280;5493;48.884;8.338;2023-09-19T03:53:34;99973.50;;;19.04;100.00
10881;BME280;5493;48.884;8.338;2023-09-19T03:56:01;99960.41;;;19.01;100.00
10881;BME280;5493;48.884;8.338;2023-09-19T03:58:28;99968.47;;;18.77;100.00
10881;BME280;5493;48.884;8.338;2023-09-19T04:00:55;99973.63;;;18.84;100.00
10881;BME280;5493;48.884;8.338;2023-09-19T04:03:23;99974.84;;;18.57;100.00
10881;BME280;5493;48.884;8.338;2023-09-19T04:05:59;99963.63;;;18.49;100.00
10881;BME280;5493;48.884;8.338;2023-09-19T04:08:26;99978.28;;;18.83;100.00
10881;BME280;5493;48.884;8.338;2023-09-19T04:10:52;99982.41;;;18.71;100.00
10881;BME280;5493;48.884;8.338;2023-09-19T04:13:19;99974.78;;;18.67;100.00
10881;BME280;5493;48.884;8.338;2023-09-19T04:15:45;99978.09;;;18.59;100.00
10881;BME280;5493;48.884;8.338;2023-09-19T04:18:12;99990.59;;;18.76;100.00
10881;BME280;5493;48.884;8.338;2023-09-19T04:20:40;99986.28;;;18.64;100.00
10881;BME280;5493;48.884;8.338;2023-09-19T04:23:06;100000.25;;;18.53;100.00
10881;BME280;5493;48.884;8.338;2023-09-19T04:25:33;100001.31;;;18.62;100.00
10881;BME280;5493;48.884;8.338;2023-09-19T04:28:00;100010.13;;;18.29;100.00
10881;BME280;5493;48.884;8.338;2023-09-19T04:30:26;100024.81;;;18.48;100.00
10881;BME280;5493;48.884;8.338;2023-09-19T04:32:52;100017.47;;;18.43;100.00
10881;BME280;5493;48.884;8.338;2023-09-19T04:35:19;100017.19;;;18.45;100.00
10881;BME280;5493;48.884;8.338;2023-09-19T04:37:47;100025.66;;;18.48;100.00
10881;BME280;5493;48.884;8.338;2023-09-19T04:40:14;100025.38;;;18.40;100.00
10881;BME280;5493;48.884;8.338;2023-09-19T04:42:43;100032.19;;;18.47;100.00
10881;BME280;5493;48.884;8.338;2023-09-19T04:45:10;100028.38;;;18.43;100.00
10881;BME280;5493;48.884;8.338;2023-09-19T04:47:37;100024.25;;;18.56;100.00
10881;BME280;5493;48.884;8.338;2023-09-19T04:50:06;100027.53;;;18.58;100.00
10881;BME280;5493;48.884;8.338;2023-09-19T04:52:33;100039.84;;;18.40;100.00
10881;BME280;5493;48.884;8.338;2023-09-19T04:55:01;100041.78;;;18.30;100.00
10881;BME280;5493;48.884;8.338;2023-09-19T04:57:27;100046.66;;;18.43;100.00
10881;BME280;5493;48.884;8.338;2023-09-19T04:59:54;100037.09;;;18.45;100.00
10881;BME280;5493;48.884;8.338;2023-09-19T05:02:20;100037.97;;;18.26;100.00
10881;BME280;5493;48.884;8.338;2023-09-19T05:04:47;100040.97;;;18.29;100.00
10881;BME280;5493;48.884;8.338;2023-09-19T05:07:14;100062.00;;;18.29;100.00
10881;BME280;5493;48.884;8.338;2023-09-19T05:09:40;100047.84;;;17.96;100.00
10881;BME280;5493;48.884;8.338;2023-09-19T05:12:09;100059.84;;;18.15;100.00
10881;BME280;5493;48.884;8.338;2023-09-19T05:14:36;100051.66;;;18.15;100.00
10881;BME280;5493;48.884;8.338;2023-09-19T05:17:02;100061.19;;;18.23;100.00
10881;BME280;5493;48.884;8.338;2023-09-19T05:19:29;100068.28;;;18.14;100.00
10881;BME280;5493;48.884;8.338;2023-09-19T05:21:55;100070.47;;;18.07;100.00
10881;BME280;5493;48.884;8.338;2023-09-19T05:24:22;100078.38;;;18.03;100.00
10881;BME280;5493;48.884;8.338;2023-09-19T05:26:51;100086.31;;;18.00;100.00
10881;BME280;5493;48.884;8.338;2023-09-19T05:29:19;100084.41;;;18.15;100.00
10881;BME280;5493;48.884;8.338;2023-09-19T05:31:46;100084.13;;;18.12;100.00
10881;BME280;5493;48.884;8.338;2023-09-19T05:34:12;100089.31;;;18.08;100.00
10881;BME280;5493;48.884;8.338;2023-09-19T05:36:39;100083.84;;;18.13;100.00
10881;BME280;5493;48.884;8.338;2023-09-19T05:39:06;100093.94;;;18.18;100.00
10881;BME280;5493;48.884;8.338;2023-09-19T05:41:34;100096.38;;;18.09;100.00
10881;BME280;5493;48.884;8.338;2023-09-19T05:44:02;100094.75;;;17.98;100.00
10881;BME280;5493;48.884;8.338;2023-09-19T05:46:30;100103.47;;;18.05;100.00
10881;BME280;5493;48.884;8.338;2023-09-19T05:48:56;100093.38;;;17.96;100.00
10881;BME280;5493;48.884;8.338;2023-09-19T05:51:23;100101.03;;;18.14;100.00
10881;BME280;5493;48.884;8.338;2023-09-19T05:53:50;100103.47;;;18.26;100.00
10881;BME280;5493;48.884;8.338;2023-09-19T05:56:17;100100.50;;;18.12;100.00
10881;BME280;5493;48.884;8.338;2023-09-19T05:58:44;100104.31;;;18.01;100.00
10881;BME280;5493;48.884;8.338;2023-09-19T06:01:10;100101.31;;;18.07;100.00
10881;BME280;5493;48.884;8.338;2023-09-19T06:03:38;100105.13;;;18.06;100.00
10881;BME280;5493;48.884;8.338;2023-09-19T06:06:05;100105.94;;;18.02;100.00
10881;BME280;5493;48.884;8.338;2023-09-19T06:08:31;100114.94;;;18.17;100.00
10881;BME280;5493;48.884;8.338;2023-09-19T06:10:58;100128.59;;;18.33;100.00
10881;BME280;5493;48.884;8.338;2023-09-19T06:13:27;100110.84;;;18.10;100.00
10881;BME280;5493;48.884;8.338;2023-09-19T06:15:54;100119.84;;;18.05;100.00
10881;BME280;5493;48.884;8.338;2023-09-19T06:18:22;100127.78;;;18.22;100.00
10881;BME280;5493;48.884;8.338;2023-09-19T06:20:52;100133.50;;;18.10;100.00
10881;BME280;5493;48.884;8.338;2023-09-19T06:23:20;100132.69;;;18.10;100.00
10881;BME280;5493;48.884;8.338;2023-09-19T06:25:48;100134.88;;;18.18;100.00
10881;BME280;5493;48.884;8.338;2023-09-19T06:28:14;100131.31;;;18.17;100.00
10881;BME280;5493;48.884;8.338;2023-09-19T06:30:43;100132.97;;;18.08;100.00
10881;BME280;5493;48.884;8.338;2023-09-19T06:33:10;100114.69;;;18.04;100.00
10881;BME280;5493;48.884;8.338;2023-09-19T06:35:38;100122.84;;;18.14;100.00
10881;BME280;5493;48.884;8.338;2023-09-19T06:38:06;100118.47;;;18.28;100.00
10881;BME280;5493;48.884;8.338;2023-09-19T06:40:33;100123.09;;;18.38;100.00
10881;BME280;5493;48.884;8.338;2023-09-19T06:43:00;100124.78;;;18.34;100.00
10881;BME280;5493;48.884;8.338;2023-09-19T06:45:29;100129.38;;;18.38;100.00
10881;BME280;5493;48.884;8.338;2023-09-19T06:47:57;100133.75;;;18.49;100.00
10881;BME280;5493;48.884;8.338;2023-09-19T06:50:25;100123.13;;;18.48;100.00
10881;BME280;5493;48.884;8.338;2023-09-19T06:52:54;100139.22;;;18.39;100.00
10881;BME280;5493;48.884;8.338;2023-09-19T06:55:23;100137.84;;;18.47;100.00
10881;BME280;5493;48.884;8.338;2023-09-19T06:57:53;100142.22;;;18.48;100.00
10881;BME280;5493;48.884;8.338;2023-09-19T07:00:20;100149.06;;;18.40;100.00
10881;BME280;5493;48.884;8.338;2023-09-19T07:02:55;100140.34;;;18.58;100.00
10881;BME280;5493;48.884;8.338;2023-09-19T07:05:21;100146.59;;;18.69;100.00
10881;BME280;5493;48.884;8.338;2023-09-19T07:07:48;100154.81;;;18.59;100.00
10881;BME280;5493;48.884;8.338;2023-09-19T07:10:15;100152.25;;;18.93;100.00
10881;BME280;5493;48.884;8.338;2023-09-19T07:12:43;100151.44;;;19.02;100.00
10881;BME280;5493;48.884;8.338;2023-09-19T07:15:09;100147.91;;;18.87;100.00
10881;BME280;5493;48.884;8.338;2023-09-19T07:17:36;100152.81;;;18.85;100.00
10881;BME280;5493;48.884;8.338;2023-09-19T07:20:03;100143.28;;;18.87;100.00
10881;BME280;5493;48.884;8.338;2023-09-19T07:22:33;100150.13;;;18.80;100.00
10881;BME280;5493;48.884;8.338;2023-09-19T07:24:59;100153.59;;;19.00;100.00
10881;BME280;5493;48.884;8.338;2023-09-19T07:27:26;100164.28;;;19.02;100.00
10881;BME280;5493;48.884;8.338;2023-09-19T07:29:53;100167.19;;;19.26;100.00
10881;BME280;5493;48.884;8.338;2023-09-19T07:32:20;100163.03;;;19.43;100.00
10881;BME280;5493;48.884;8.338;2023-09-19T07:34:46;100161.81;;;19.64;100.00
10881;BME280;5493;48.884;8.338;2023-09-19T07:37:13;100162.31;;;19.77;100.00
10881;BME280;5493;48.884;8.338;2023-09-19T07:39:41;100158.16;;;19.84;100.00
10881;BME280;5493;48.884;8.338;2023-09-19T07:42:08;100168.97;;;19.60;100.00
10881;BME280;5493;48.884;8.338;2023-09-19T07:44:36;100158.31;;;19.59;100.00
10881;BME280;5493;48.884;8.338;2023-09-19T07:47:04;100170.44;;;19.87;100.00
10881;BME280;5493;48.884;8.338;2023-09-19T07:49:31;100175.75;;;20.12;100.00
10881;BME280;5493;48.884;8.338;2023-09-19T07:51:57;100168.09;;;20.09;100.00
10881;BME280;5493;48.884;8.338;2023-09-19T07:54:24;100172.75;;;20.08;100.00
10881;BME280;5493;48.884;8.338;2023-09-19T07:56:50;100170.72;;;20.24;100.00
10881;BME280;5493;48.884;8.338;2023-09-19T07:59:17;100167.75;;;20.21;100.00
10881;BME280;5493;48.884;8.338;2023-09-19T08:01:43;100188.41;;;20.42;100.00
10881;BME280;5493;48.884;8.338;2023-09-19T08:04:11;100190.41;;;20.26;100.00
10881;BME280;5493;48.884;8.338;2023-09-19T08:06:38;100188.66;;;20.45;100.00
10881;BME280;5493;48.884;8.338;2023-09-19T08:09:04;100185.72;;;20.37;100.00
10881;BME280;5493;48.884;8.338;2023-09-19T08:11:33;100192.81;;;20.43;100.00
10881;BME280;5493;48.884;8.338;2023-09-19T08:13:59;100189.75;;;20.44;100.00
10881;BME280;5493;48.884;8.338;2023-09-19T08:16:26;100189.59;;;20.31;100.00
10881;BME280;5493;48.884;8.338;2023-09-19T08:18:52;100196.91;;;20.40;100.00
10881;BME280;5493;48.884;8.338;2023-09-19T08:21:21;100193.28;;;20.50;100.00
10881;BME280;5493;48.884;8.338;2023-09-19T08:23:49;100203.41;;;20.49;100.00
10881;BME280;5493;48.884;8.338;2023-09-19T08:26:15;100204.81;;;20.47;100.00
10881;BME280;5493;48.884;8.338;2023-09-19T08:28:43;100203.16;;;20.51;100.00
10881;BME280;5493;48.884;8.338;2023-09-19T08:31:09;100209.28;;;20.67;100.00
10881;BME280;5493;48.884;8.338;2023-09-19T08:33:37;100197.72;;;20.75;100.00
10881;BME280;5493;48.884;8.338;2023-09-19T08:36:04;100202.72;;;20.68;100.00
10881;BME280;5493;48.884;8.338;2023-09-19T08:38:33;100195.22;;;20.78;100.00
10881;BME280;5493;48.884;8.338;2023-09-19T08:41:05;100205.06;;;20.50;100.00
10881;BME280;5493;48.884;8.338;2023-09-19T08:43:32;100199.09;;;20.43;100.00
10881;BME280;5493;48.884;8.338;2023-09-19T08:46:09;100209.63;;;20.60;100.00
10881;BME280;5493;48.884;8.338;2023-09-19T08:48:39;100206.28;;;20.34;100.00
10881;BME280;5493;48.884;8.338;2023-09-19T08:51:07;100202.34;;;20.79;100.00
10881;BME280;5493;48.884;8.338;2023-09-19T08:53:42;100209.03;;;20.92;100.00
10881;BME280;5493;48.884;8.338;2023-09-19T08:56:12;100205.19;;;21.22;100.00
10881;BME280;5493;48.884;8.338;2023-09-19T08:58:44;100191.22;;;21.42;100.00
10881;BME280;5493;48.884;8.338;2023-09-19T09:01:14;100198.19;;;21.34;100.00
10881;BME280;5493;48.884;8.338;2023-09-19T09:03:42;100181.53;;;21.02;100.00
10881;BME280;5493;48.884;8.338;2023-09-19T09:06:13;100192.66;;;21.39;100.00
10881;BME280;5493;48.884;8.338;2023-09-19T09:08:42;100180.94;;;21.34;100.00
10881;BME280;5493;48.884;8.338;2023-09-19T09:11:10;100172.44;;;21.06;100.00
10881;BME280;5493;48.884;8.338;2023-09-19T09:13:37;100190.34;;;21.46;100.00
10881;BME280;5493;48.884;8.338;2023-09-19T09:16:04;100192.63;;;21.82;100.00
10881;BME280;5493;48.884;8.338;2023-09-19T09:18:30;100192.25;;;21.70;100.00
10881;BME280;5493;48.884;8.338;2023-09-19T09:20:57;100194.06;;;21.98;100.00
10881;BME280;5493;48.884;8.338;2023-09-19T09:23:24;100177.28;;;21.62;100.00
10881;BME280;5493;48.884;8.338;2023-09-19T09:25:53;100191.47;;;21.88;100.00
10881;BME280;5493;48.884;8.338;2023-09-19T09:28:25;100189.88;;;21.82;100.00
10881;BME280;5493;48.884;8.338;2023-09-19T09:30:53;100190.63;;;21.69;100.00
10881;BME280;5493;48.884;8.338;2023-09-19T09:33:20;100190.34;;;21.46;100.00
10881;BME280;5493;48.884;8.338;2023-09-19T09:35:49;100192.50;;;21.49;100.00
10881;BME280;5493;48.884;8.338;2023-09-19T09:38:17;100189.22;;;21.29;100.00
10881;BME280;5493;48.884;8.338;2023-09-19T09:40:48;100188.59;;;21.08;100.00
10881;BME280;5493;48.884;8.338;2023-09-19T09:43:31;100193.81;;;21.33;100.00
10881;BME280;5493;48.884;8.338;2023-09-19T09:46:12;100197.94;;;21.31;100.00
10881;BME280;5493;48.884;8.338;2023-09-19T09:48:57;100187.88;;;21.87;100.00
10881;BME280;5493;48.884;8.338;2023-09-19T09:51:38;100184.31;;;21.87;100.00
10881;BME280;5493;48.884;8.338;2023-09-19T09:54:11;100182.16;;;22.21;100.00
10881;BME280;5493;48.884;8.338;2023-09-19T09:56:52;100184.03;;;22.26;100.00
10881;BME280;5493;48.884;8.338;2023-09-19T09:59:21;100180.25;;;22.54;100.00
10881;BME280;5493;48.884;8.338;2023-09-19T10:01:49;100194.72;;;22.27;100.00
10881;BME280;5493;48.884;8.338;2023-09-19T10:04:27;100188.19;;;22.42;100.00
10881;BME280;5493;48.884;8.338;2023-09-19T10:06:55;100195.03;;;22.90;100.00
10881;BME280;5493;48.884;8.338;2023-09-19T10:09:22;100197.81;;;23.59;100.00
10881;BME280;5493;48.884;8.338;2023-09-19T10:12:03;100199.25;;;23.56;100.00
10881;BME280;5493;48.884;8.338;2023-09-19T10:14:38;100198.59;;;23.86;100.00
10881;BME280;5493;48.884;8.338;2023-09-19T10:17:05;100190.78;;;24.60;100.00
10881;BME280;5493;48.884;8.338;2023-09-19T10:19:45;100185.56;;;25.03;100.00
10881;BME280;5493;48.884;8.338;2023-09-19T10:22:14;100192.63;;;25.74;100.00
10881;BME280;5493;48.884;8.338;2023-09-19T10:24:43;100188.78;;;25.44;100.00
10881;BME280;5493;48.884;8.338;2023-09-19T10:27:12;100192.91;;;25.56;100.00
10881;BME280;5493;48.884;8.338;2023-09-19T10:29:43;100188.72;;;25.84;100.00
10881;BME280;5493;48.884;8.338;2023-09-19T10:32:14;100194.34;;;25.53;100.00
10881;BME280;5493;48.884;8.338;2023-09-19T10:34:46;100191.66;;;25.39;100.00
10881;BME280;5493;48.884;8.338;2023-09-19T10:37:13;100200.50;;;24.58;100.00
10881;BME280;5493;48.884;8.338;2023-09-19T10:39:45;100197.06;;;24.30;100.00
10881;BME280;5493;48.884;8.338;2023-09-19T10:42:15;100187.53;;;24.00;100.00
10881;BME280;5493;48.884;8.338;2023-09-19T10:44:45;100192.28;;;24.22;100.00
10881;BME280;5493;48.884;8.338;2023-09-19T10:47:12;100188.28;;;24.28;100.00
10881;BME280;5493;48.884;8.338;2023-09-19T10:49:43;100189.03;;;24.06;100.00
10881;BME280;5493;48.884;8.338;2023-09-19T10:52:13;100188.06;;;24.38;100.00
10881;BME280;5493;48.884;8.338;2023-09-19T10:54:46;100196.25;;;24.29;100.00
10881;BME280;5493;48.884;8.338;2023-09-19T10:57:19;100196.75;;;25.07;100.00
10881;BME280;5493;48.884;8.338;2023-09-19T11:00:02;100195.53;;;25.21;100.00
10881;BME280;5493;48.884;8.338;2023-09-19T11:03:17;100179.63;;;25.75;100.00
10881;BME280;5493;48.884;8.338;2023-09-19T11:06:10;100181.47;;;25.48;100.00
10881;BME280;5493;48.884;8.338;2023-09-19T11:09:01;100180.34;;;25.50;100.00
10881;BME280;5493;48.884;8.338;2023-09-19T11:11:48;100179.25;;;25.59;100.00
10881;BME280;5493;48.884;8.338;2023-09-19T11:14:38;100186.09;;;25.14;100.00
10881;BME280;5493;48.884;8.338;2023-09-19T11:20:23;100174.94;;;24.66;100.00
10881;BME280;5493;48.884;8.338;2023-09-19T11:23:23;100172.81;;;26.07;100.00
10881;BME280;5493;48.884;8.338;2023-09-19T11:25:53;100171.81;;;25.77;100.00
10881;BME280;5493;48.884;8.338;2023-09-19T11:28:33;100170.00;;;25.64;100.00
10881;BME280;5493;48.884;8.338;2023-09-19T11:34:39;100162.69;;;25.76;100.00
10881;BME280;5493;48.884;8.338;2023-09-19T11:40:11;100150.53;;;26.12;100.00
10881;BME280;5493;48.884;8.338;2023-09-19T11:42:43;100148.41;;;26.17;99.72
10881;BME280;5493;48.884;8.338;2023-09-19T11:48:12;100153.59;;;26.53;98.58
10881;BME280;5493;48.884;8.338;2023-09-19T11:50:41;100138.34;;;26.38;97.75
10881;BME280;5493;48.884;8.338;2023-09-19T11:53:09;100140.34;;;26.84;96.01
10881;BME280;5493;48.884;8.338;2023-09-19T11:55:38;100131.41;;;26.79;93.07
10881;BME280;5493;48.884;8.338;2023-09-19T11:58:07;100128.84;;;26.57;92.49
10881;BME280;5493;48.884;8.338;2023-09-19T12:00:35;100131.88;;;26.81;92.29
10881;BME280;5493;48.884;8.338;2023-09-19T12:03:08;100127.69;;;26.66;92.14
10881;BME280;5493;48.884;8.338;2023-09-19T12:05:35;100126.69;;;27.17;94.58
10881;BME280;5493;48.884;8.338;2023-09-19T12:08:02;100117.91;;;27.15;87.48
10881;BME280;5493;48.884;8.338;2023-09-19T12:10:32;100134.03;;;27.72;88.38
10881;BME280;5493;48.884;8.338;2023-09-19T12:13:01;100126.06;;;27.70;87.09
10881;BME280;5493;48.884;8.338;2023-09-19T12:15:28;100110.84;;;27.97;87.04
10881;BME280;5493;48.884;8.338;2023-09-19T12:18:00;100107.53;;;27.62;87.21
10881;BME280;5493;48.884;8.338;2023-09-19T12:20:41;100113.69;;;27.88;81.07
10881;BME280;5493;48.884;8.338;2023-09-19T12:23:13;100108.91;;;27.27;82.38
10881;BME280;5493;48.884;8.338;2023-09-19T12:25:41;100121.38;;;27.04;88.72
10881;BME280;5493;48.884;8.338;2023-09-19T12:28:10;100118.91;;;26.73;85.51
10881;BME280;5493;48.884;8.338;2023-09-19T12:30:38;100101.81;;;26.71;89.92
10881;BME280;5493;48.884;8.338;2023-09-19T12:33:15;100103.50;;;26.55;91.01
10881;BME280;5493;48.884;8.338;2023-09-19T12:35:44;100099.34;;;25.71;95.54
10881;BME280;5493;48.884;8.338;2023-09-19T12:38:10;100097.69;;;25.62;98.20
10881;BME280;5493;48.884;8.338;2023-09-19T12:40:37;100101.69;;;25.21;98.80
10881;BME280;5493;48.884;8.338;2023-09-19T12:43:09;100095.16;;;25.09;100.00
10881;BME280;5493;48.884;8.338;2023-09-19T12:45:42;100094.53;;;25.29;98.31
10881;BME280;5493;48.884;8.338;2023-09-19T12:48:22;100087.78;;;25.52;95.49
10881;BME280;5493;48.884;8.338;2023-09-19T12:51:02;100091.00;;;25.28;95.23
10881;BME280;5493;48.884;8.338;2023-09-19T12:53:32;100087.28;;;26.02;91.71
10881;BME280;5493;48.884;8.338;2023-09-19T12:56:01;100088.94;;;26.20;91.96
10881;BME280;5493;48.884;8.338;2023-09-19T12:58:32;100079.34;;;26.26;89.50
10881;BME280;5493;48.884;8.338;2023-09-19T13:01:00;100067.78;;;25.98;88.83
10881;BME280;5493;48.884;8.338;2023-09-19T13:03:28;100068.47;;;25.78;87.18
10881;BME280;5493;48.884;8.338;2023-09-19T13:05:57;100069.59;;;25.51;91.92
10881;BME280;5493;48.884;8.338;2023-09-19T13:08:27;100079.97;;;26.06;89.42
10881;BME280;5493;48.884;8.338;2023-09-19T13:11:06;100064.03;;;26.28;85.42
10881;BME280;5493;48.884;8.338;2023-09-19T13:13:37;100071.72;;;25.80;88.35
10881;BME280;5493;48.884;8.338;2023-09-19T13:16:04;100073.50;;;26.19;86.27
10881;BME280;5493;48.884;8.338;2023-09-19T13:18:42;100056.66;;;26.41;85.68
10881;BME280;5493;48.884;8.338;2023-09-19T13:21:11;100053.00;;;26.20;82.48